Bookmark and Share
Track history (hours):
 

Aikoumaru No.8

Last reported at 2014-Apr-16 04:32 UTC. Time now 2014-Apr-16 05:28 UTC.
Position N 35°37' E 139°58'.

Length 74 m; draft 4.5 m.

Type: Cargo ship. MMSI: 431003153.

NotesDate/timePositionNaut miles runAvg speedWind from/ knotsBaromVisibWave heightAir tempDewpointWater temp
2014-Apr-16 04:32N 35°37' E 139°58'0 0.0
2014-Apr-16 03:32N 35°37' E 139°58'0 0.0
2014-Apr-16 02:32N 35°37' E 139°58'6 5.8
2014-Apr-16 01:33N 35°33' E 139°55'1111.1
2014-Apr-16 00:33N 35°25' E 139°45'6 5.3
2014-Apr-15 23:30N 35°23' E 139°38'0 0.1
2014-Apr-15 22:33N 35°23' E 139°38'1 1.0
2014-Apr-15 21:30N 35°24' E 139°39'0 0.0
2014-Apr-15 20:27N 35°24' E 139°39'0 0.0
2014-Apr-15 19:33N 35°24' E 139°39'0 0.0
2014-Apr-15 18:33N 35°24' E 139°39'0 0.0
2014-Apr-15 17:33N 35°24' E 139°39'0 0.1
2014-Apr-15 16:33N 35°24' E 139°39'7 7.4
2014-Apr-15 15:33N 35°18' E 139°45'1110.9
2014-Apr-15 14:33N 35°07' E 139°45'12 5.9
2014-Apr-15 12:32N 34°59' E 139°34'  
2014-Apr-11 11:19N 34°36' E 134°55'912.0
2014-Apr-11 10:33N 34°35' E 135°07'1212.4
2014-Apr-11 09:33N 34°37' E 135°21'4 1.6
2014-Apr-11 07:18N 34°37' E 135°26'0 0.0
2014-Apr-11 06:12N 34°37' E 135°26'2 3.1
2014-Apr-11 05:29N 34°37' E 135°23'3 1.6
2014-Apr-11 03:33N 34°34' E 135°22'3 0.5
2014-Apr-10 22:33N 34°32' E 135°23'1 0.4
2014-Apr-10 19:22N 34°31' E 135°24'0 0.0
2014-Apr-10 05:23N 34°31' E 135°24'0 0.0
2014-Apr-10 04:28N 34°31' E 135°24'0 0.0
2014-Apr-10 03:28N 34°31' E 135°24'0 0.0
2014-Apr-10 02:33N 34°31' E 135°24'8 7.5
2014-Apr-10 01:33N 34°29' E 135°15'1211.4
2014-Apr-10 00:29N 34°20' E 135°05'1010.8
2014-Apr-09 23:34N 34°10' E 135°03'  

Dump ship's entire track history

sailing weather and tide predictions

Aikoumaru No.8 — JD3288 — position and weather